createdAt,value
2019-05-13T03:03:27.954Z,73.90
2019-05-13T03:05:57.203Z,73.70
2019-05-13T03:08:40.888Z,73.90
2019-05-13T03:10:57.445Z,73.60
2019-05-13T03:13:26.724Z,73.40
2019-05-13T03:16:14.162Z,73.60
2019-05-13T03:18:43.995Z,73.60
2019-05-13T03:21:13.462Z,73.80
2019-05-13T03:23:44.380Z,74.90
2019-05-13T03:26:13.920Z,74.20
2019-05-13T03:28:44.040Z,73.80
2019-05-13T03:31:17.173Z,73.80
2019-05-13T03:33:46.931Z,74.00
2019-05-13T03:36:17.356Z,73.80
2019-05-13T03:39:01.859Z,74.40
2019-05-13T03:41:18.128Z,74.10
2019-05-13T03:43:48.711Z,74.90
2019-05-13T03:46:22.735Z,74.90
2019-05-13T03:48:54.149Z,74.30
2019-05-13T03:51:24.001Z,74.00
2019-05-13T03:53:53.781Z,74.70
2019-05-13T03:56:23.900Z,73.90
2019-05-13T03:58:54.249Z,74.10
2019-05-13T04:01:23.891Z,73.80
2019-05-13T04:03:53.180Z,74.10
2019-05-13T04:06:23.721Z,74.30
2019-05-13T04:09:15.665Z,74.50
2019-05-13T04:11:26.091Z,74.40
2019-05-13T04:13:55.380Z,74.60
2019-05-13T04:16:24.710Z,74.30
2019-05-13T04:18:54.140Z,74.20
2019-05-13T04:21:23.562Z,74.40
2019-05-13T04:23:53.508Z,75.60
2019-05-13T04:26:23.781Z,74.10
2019-05-13T04:28:53.291Z,74.10
2019-05-13T04:31:23.131Z,73.80
2019-05-13T04:33:53.454Z,73.70
2019-05-13T04:36:23.842Z,73.80
2019-05-13T04:38:53.558Z,73.60
2019-05-13T04:41:23.428Z,73.20
2019-05-13T04:43:54.133Z,73.10
2019-05-13T04:46:23.971Z,72.80
2019-05-13T04:48:53.513Z,72.70
2019-05-13T04:51:23.074Z,72.70
2019-05-13T04:53:56.918Z,72.70
2019-05-13T04:56:23.684Z,73.00
2019-05-13T04:58:53.114Z,72.00
2019-05-13T05:01:28.725Z,72.60
2019-05-13T05:04:23.976Z,72.80
2019-05-13T05:06:57.671Z,72.40
2019-05-13T05:10:23.349Z,72.50
2019-05-13T05:12:56.964Z,72.10
2019-05-13T05:15:38.520Z,71.70
2019-05-13T05:18:45.607Z,72.20
2019-05-13T05:21:17.639Z,71.70
2019-05-13T05:24:02.086Z,71.60
2019-05-13T05:26:49.382Z,71.60
2019-05-13T05:29:32.067Z,71.60
2019-05-13T05:32:12.361Z,71.90
2019-05-13T05:35:01.277Z,70.90
2019-05-13T05:37:52.252Z,71.20
2019-05-13T05:40:31.266Z,70.80
2019-05-13T05:42:59.167Z,70.60
2019-05-13T05:45:28.438Z,70.90
2019-05-13T05:48:01.465Z,71.10
2019-05-13T05:50:32.976Z,71.10
2019-05-13T05:53:04.640Z,70.80
2019-05-13T05:55:36.840Z,70.40
2019-05-13T05:58:06.967Z,70.00
2019-05-13T06:00:38.240Z,70.10
2019-05-13T06:03:07.673Z,69.70
2019-05-13T06:05:37.598Z,69.50
2019-05-13T06:08:07.204Z,69.20
2019-05-13T06:10:46.306Z,68.60
2019-05-13T06:13:07.979Z,68.80
2019-05-13T06:15:37.304Z,68.00
2019-05-13T06:18:06.573Z,68.00
2019-05-13T06:20:35.835Z,68.30
2019-05-13T06:23:05.099Z,68.60
2019-05-13T06:25:34.359Z,68.60
2019-05-13T06:28:03.977Z,67.50
2019-05-13T06:30:33.403Z,68.00
2019-05-13T06:33:02.668Z,67.90
2019-05-13T06:35:32.504Z,67.80
2019-05-13T06:38:02.148Z,67.30
2019-05-13T06:40:31.981Z,66.50
2019-05-13T06:43:01.587Z,65.60
2019-05-13T06:45:31.737Z,65.60
2019-05-13T06:48:02.473Z,64.90
2019-05-13T06:50:32.425Z,65.90
2019-05-13T06:53:02.354Z,65.50
2019-05-13T06:55:31.759Z,64.30
2019-05-13T06:58:02.200Z,64.10
2019-05-13T07:00:34.558Z,63.60
2019-05-13T07:03:02.731Z,62.90
2019-05-13T07:05:31.986Z,63.10
2019-05-13T07:08:01.943Z,63.40
2019-05-13T07:10:32.067Z,64.40
2019-05-13T07:13:02.292Z,62.50
2019-05-13T07:15:32.671Z,64.00
2019-05-13T07:18:02.450Z,61.50
2019-05-13T07:20:32.317Z,61.90
2019-05-13T07:23:03.291Z,61.80
2019-05-13T07:25:32.813Z,61.30
2019-05-13T07:28:02.380Z,62.30
2019-05-13T07:30:43.183Z,61.70
2019-05-13T07:33:13.111Z,60.00
2019-05-13T07:35:44.971Z,60.60
2019-05-13T07:38:14.167Z,61.20
2019-05-13T07:40:43.715Z,59.70
2019-05-13T07:43:12.991Z,60.20
2019-05-13T07:45:42.590Z,59.80
2019-05-13T07:48:21.031Z,59.60
2019-05-13T07:50:53.686Z,58.00
2019-05-13T07:53:18.746Z,58.60
2019-05-13T07:55:45.135Z,58.50
2019-05-13T07:58:14.482Z,59.50
2019-05-13T08:00:43.790Z,58.80
2019-05-13T08:03:13.107Z,58.80
2019-05-13T08:05:42.447Z,58.40
2019-05-13T08:08:12.095Z,57.90
2019-05-13T08:10:42.598Z,57.70
2019-05-13T08:13:12.208Z,57.70
2019-05-13T08:15:42.310Z,57.10
2019-05-13T08:18:12.418Z,57.80
2019-05-13T08:20:42.403Z,56.90
2019-05-13T08:23:12.211Z,57.40
2019-05-13T08:25:42.461Z,57.70
2019-05-13T08:28:13.368Z,57.10
2019-05-13T08:30:43.075Z,56.30
2019-05-13T08:33:13.766Z,56.00
2019-05-13T08:35:47.043Z,55.20
2019-05-13T08:38:14.007Z,55.90
2019-05-13T08:40:43.284Z,55.50
2019-05-13T08:43:13.028Z,55.50
2019-05-13T08:45:43.159Z,54.80
2019-05-13T08:48:13.079Z,54.40
2019-05-13T08:50:42.855Z,54.30
2019-05-13T08:53:12.427Z,54.60
2019-05-13T08:55:42.802Z,54.20
2019-05-13T08:58:12.870Z,54.60
2019-05-13T09:00:53.499Z,54.90
2019-05-13T09:03:23.726Z,53.50
2019-05-13T09:05:53.927Z,52.40
2019-05-13T09:08:24.832Z,53.80
2019-05-13T09:10:56.800Z,53.70
2019-05-13T09:13:25.066Z,53.40
2019-05-13T09:15:54.574Z,52.00
2019-05-13T09:18:23.831Z,52.50
2019-05-13T09:20:53.128Z,51.10
2019-05-13T09:23:22.537Z,52.80
2019-05-13T09:25:52.320Z,53.90
2019-05-13T09:28:22.233Z,53.20
2019-05-13T09:30:53.168Z,51.50
2019-05-13T09:33:22.468Z,52.10
2019-05-13T09:35:53.666Z,52.80
2019-05-13T09:38:22.988Z,52.20
2019-05-13T09:40:53.254Z,50.70
2019-05-13T09:43:22.798Z,50.30
2019-05-13T09:45:52.525Z,48.40
2019-05-13T09:48:22.860Z,47.90
2019-05-13T09:50:52.215Z,45.60
2019-05-13T09:53:22.172Z,47.00
2019-05-13T09:55:52.369Z,48.00
2019-05-13T09:58:22.570Z,46.20
2019-05-13T10:00:53.439Z,46.60
2019-05-13T10:03:29.065Z,46.60
2019-05-13T10:05:54.810Z,46.30
2019-05-13T10:08:25.079Z,46.70
2019-05-13T10:10:54.352Z,48.60
2019-05-13T10:13:23.695Z,38.10
2019-05-13T10:15:52.969Z,32.10
2019-05-13T10:18:22.416Z,30.30
2019-05-13T10:21:00.048Z,30.30
2019-05-13T10:23:32.507Z,34.80
2019-05-13T10:26:06.439Z,38.50
2019-05-13T10:28:36.246Z,41.90
2019-05-13T10:31:05.796Z,40.20
2019-05-13T10:33:35.134Z,34.90
2019-05-13T10:36:04.794Z,36.70
2019-05-13T10:38:34.046Z,34.40
2019-05-13T10:41:04.181Z,29.40
2019-05-13T10:43:39.042Z,28.70
2019-05-13T10:46:04.856Z,35.40
2019-05-13T10:48:34.369Z,35.50
2019-05-13T10:51:03.807Z,36.70
2019-05-13T10:53:33.083Z,33.60
2019-05-13T10:56:03.231Z,33.60
2019-05-13T10:58:34.147Z,33.60
2019-05-13T11:01:05.113Z,27.30
2019-05-13T11:03:34.448Z,26.80
2019-05-13T11:06:03.779Z,27.00
2019-05-13T11:08:33.520Z,27.50
2019-05-13T11:11:04.064Z,28.00
2019-05-13T11:13:50.534Z,26.60
2019-05-13T11:16:04.564Z,25.80
2019-05-13T11:18:33.834Z,24.70
2019-05-13T11:21:03.097Z,24.70
2019-05-13T11:23:32.574Z,25.30
2019-05-13T11:26:03.223Z,25.10
2019-05-13T11:28:33.200Z,27.70
2019-05-13T11:31:03.548Z,29.60
2019-05-13T11:33:33.185Z,29.80
2019-05-13T11:36:03.466Z,29.00
2019-05-13T11:38:33.123Z,28.80
2019-05-13T11:41:03.111Z,28.30
2019-05-13T11:43:33.130Z,29.10
2019-05-13T11:46:04.530Z,29.00
2019-05-13T11:48:33.804Z,28.80
2019-05-13T11:51:04.135Z,28.90
2019-05-13T11:53:37.466Z,28.60
2019-05-13T11:56:05.691Z,29.60
2019-05-13T11:58:34.955Z,30.00
2019-05-13T12:01:05.624Z,28.40
2019-05-13T12:03:34.909Z,29.20
2019-05-13T12:06:04.416Z,29.10
2019-05-13T12:08:34.277Z,28.80
2019-05-13T12:11:05.810Z,28.50
2019-05-13T12:13:34.960Z,28.10
2019-05-13T12:16:04.310Z,28.80
2019-05-13T12:18:33.928Z,29.20
2019-05-13T12:21:04.245Z,29.10
2019-05-13T12:23:33.718Z,27.80
2019-05-13T12:26:03.983Z,27.30
2019-05-13T12:28:33.979Z,27.70
2019-05-13T12:31:03.575Z,26.70
2019-05-13T12:33:33.050Z,26.50
2019-05-13T12:36:02.438Z,26.80
2019-05-13T12:38:33.185Z,27.40
2019-05-13T12:41:05.295Z,27.10
2019-05-13T12:43:34.092Z,27.00
2019-05-13T12:46:03.430Z,26.40
2019-05-13T12:48:32.770Z,28.10
2019-05-13T12:51:03.120Z,27.00
2019-05-13T12:53:32.692Z,27.40
2019-05-13T12:56:03.224Z,27.70
2019-05-13T12:58:34.135Z,26.40
2019-05-13T13:01:04.774Z,27.10
2019-05-13T13:03:34.035Z,27.40
2019-05-13T13:06:25.787Z,27.60
2019-05-13T13:08:43.853Z,25.70
2019-05-13T13:11:06.420Z,27.10
2019-05-13T13:13:57.414Z,27.70
2019-05-13T13:16:07.182Z,26.70
2019-05-13T13:18:36.895Z,26.60
2019-05-13T13:21:07.887Z,27.40
2019-05-13T13:23:37.372Z,25.60
2019-05-13T13:26:13.863Z,26.80
2019-05-13T13:28:37.576Z,25.30
2019-05-13T13:31:06.874Z,25.70
2019-05-13T13:33:36.142Z,26.30
2019-05-13T13:36:06.394Z,26.50
2019-05-13T13:38:37.799Z,26.00
2019-05-13T13:41:07.066Z,26.40
2019-05-13T13:43:37.193Z,25.90
2019-05-13T13:46:31.169Z,25.60
2019-05-13T13:48:38.927Z,26.00
2019-05-13T13:51:08.481Z,25.40
2019-05-13T13:53:37.731Z,24.80
2019-05-13T13:56:07.346Z,25.10
2019-05-13T13:58:36.621Z,24.20
2019-05-13T14:01:12.504Z,24.30
2019-05-13T14:03:36.847Z,24.50
2019-05-13T14:06:06.747Z,25.30
2019-05-13T14:08:37.319Z,25.20
2019-05-13T14:11:06.587Z,25.00
2019-05-13T14:13:35.862Z,24.00
2019-05-13T14:16:05.200Z,24.20
2019-05-13T14:18:34.467Z,24.00
2019-05-13T14:21:03.818Z,23.60
2019-05-13T14:23:37.607Z,23.60
2019-05-13T14:28:34.123Z,22.00
2019-05-13T14:31:04.219Z,22.40
2019-05-13T14:33:35.507Z,22.90
2019-05-13T14:36:04.471Z,24.70
2019-05-13T14:38:34.211Z,26.30
2019-05-13T14:41:03.721Z,26.40
2019-05-13T14:43:33.187Z,26.70
2019-05-13T14:46:02.688Z,27.00
2019-05-13T14:48:33.137Z,26.80
2019-05-13T14:51:02.531Z,26.20
2019-05-13T14:53:32.439Z,25.00
2019-05-13T14:56:03.012Z,22.80
2019-05-13T14:58:32.986Z,23.30
2019-05-13T15:01:15.752Z,22.80
2019-05-13T15:03:33.687Z,22.90
2019-05-13T15:06:04.207Z,22.60
2019-05-13T15:08:33.467Z,22.50
2019-05-13T15:11:02.751Z,22.30
2019-05-13T15:13:32.346Z,22.30
2019-05-13T15:16:01.851Z,21.40
2019-05-13T15:21:02.895Z,21.20
2019-05-13T15:23:32.160Z,22.50
2019-05-13T15:26:02.154Z,22.70
2019-05-13T15:28:31.985Z,22.50
2019-05-13T15:31:01.547Z,22.70
2019-05-13T15:33:32.675Z,22.30
2019-05-13T15:36:02.367Z,22.80
2019-05-13T15:38:32.862Z,23.50
2019-05-13T15:41:02.231Z,24.50
2019-05-13T15:43:32.651Z,24.30
2019-05-13T15:46:02.079Z,24.20
2019-05-13T15:48:31.774Z,24.20
2019-05-13T15:51:02.080Z,23.90
2019-05-13T15:53:32.746Z,23.80
2019-05-13T15:56:02.814Z,21.20
2019-05-13T15:58:40.018Z,20.30
2019-05-13T16:01:04.288Z,20.20
2019-05-13T16:03:33.634Z,20.50
2019-05-13T16:06:03.140Z,20.50
2019-05-13T16:08:32.395Z,20.60
2019-05-13T16:11:02.423Z,21.80
2019-05-13T16:13:32.984Z,23.00
2019-05-13T16:16:02.524Z,23.00
2019-05-13T16:18:31.997Z,24.00
2019-05-13T16:21:01.907Z,24.00
2019-05-13T16:23:32.281Z,24.60
2019-05-13T16:26:02.078Z,24.60
2019-05-13T16:28:32.645Z,23.40
2019-05-13T16:31:02.502Z,22.60
2019-05-13T16:33:32.209Z,24.00
2019-05-13T16:36:37.191Z,25.10
2019-05-13T16:38:33.028Z,25.60
2019-05-13T16:41:03.570Z,26.70
2019-05-13T16:43:33.214Z,26.70
2019-05-13T16:46:02.495Z,27.30
2019-05-13T16:48:32.336Z,27.10
2019-05-13T16:51:01.847Z,27.60
2019-05-13T16:53:31.749Z,26.60
2019-05-13T16:56:01.925Z,24.20
2019-05-13T16:58:32.766Z,24.30
2019-05-13T17:01:02.665Z,26.10
2019-05-13T17:03:32.154Z,26.80
2019-05-13T17:06:02.300Z,27.40
2019-05-13T17:08:32.063Z,28.20
2019-05-13T17:11:02.177Z,28.30
2019-05-13T17:13:32.099Z,28.60
2019-05-13T17:16:02.742Z,29.20
2019-05-13T17:18:32.547Z,29.50
2019-05-13T17:23:25.911Z,29.80
2019-05-13T17:25:55.188Z,30.00
2019-05-13T17:28:24.454Z,30.00
2019-05-13T17:30:53.723Z,30.50
2019-05-13T17:33:23.174Z,30.80
2019-05-13T17:35:52.543Z,30.60
2019-05-13T17:38:22.048Z,31.10
2019-05-13T17:40:53.068Z,31.50
2019-05-13T17:43:24.999Z,32.10
2019-05-13T17:45:54.910Z,32.10
2019-05-13T17:48:29.212Z,32.50
2019-05-13T17:50:55.152Z,33.50
2019-05-13T17:53:24.410Z,34.00
2019-05-13T17:55:53.682Z,34.20
2019-05-13T17:58:22.938Z,33.40
2019-05-13T18:00:52.221Z,32.90
2019-05-13T18:03:21.711Z,33.00
2019-05-13T18:05:51.467Z,32.90
2019-05-13T18:08:20.932Z,33.80
2019-05-13T18:10:51.416Z,35.10
2019-05-13T18:13:21.550Z,33.80
2019-05-13T18:15:50.998Z,34.20
2019-05-13T18:18:21.516Z,34.60
2019-05-13T18:20:52.070Z,35.70
2019-05-13T18:23:21.863Z,35.60
2019-05-13T18:25:51.571Z,35.70
2019-05-13T18:28:30.287Z,35.10
2019-05-13T18:30:51.938Z,35.40
2019-05-13T18:33:21.210Z,35.70
2019-05-13T18:35:52.481Z,35.80
2019-05-13T18:38:21.452Z,36.00
2019-05-13T18:40:52.638Z,36.30
2019-05-13T18:43:22.010Z,36.70
2019-05-13T18:45:52.538Z,36.80
2019-05-13T18:48:23.082Z,36.90
2019-05-13T18:50:52.586Z,37.70
2019-05-13T18:53:23.451Z,37.90
2019-05-13T18:55:52.749Z,38.10
2019-05-13T18:58:22.368Z,38.20
2019-05-13T19:00:52.293Z,37.80
2019-05-13T19:03:21.972Z,37.80
2019-05-13T19:05:51.341Z,37.90
2019-05-13T19:08:21.397Z,38.30
2019-05-13T19:10:52.184Z,38.60
2019-05-13T19:13:21.893Z,39.20
2019-05-13T19:15:51.767Z,39.60
2019-05-13T19:18:21.540Z,39.70
2019-05-13T19:20:51.375Z,39.90
2019-05-13T19:23:20.850Z,39.90
2019-05-13T19:25:51.344Z,40.20
2019-05-13T19:28:22.229Z,41.10
2019-05-13T19:30:51.855Z,41.00
2019-05-13T19:33:22.083Z,41.60
2019-05-13T19:35:51.938Z,41.70
2019-05-13T19:38:21.317Z,41.10
2019-05-13T19:40:50.566Z,41.20
2019-05-13T19:43:21.850Z,41.00
2019-05-13T19:45:51.927Z,41.20
2019-05-13T19:48:21.832Z,41.00
2019-05-13T19:50:52.124Z,41.40
2019-05-13T19:53:21.599Z,41.50
2019-05-13T19:55:51.996Z,42.10
2019-05-13T19:58:22.318Z,42.30
2019-05-13T20:00:51.874Z,42.50
2019-05-13T20:03:22.605Z,43.00
2019-05-13T20:05:52.037Z,43.00
2019-05-13T20:08:21.728Z,43.20
2019-05-13T20:10:51.558Z,43.60
2019-05-13T20:13:21.777Z,43.30
2019-05-13T20:15:51.863Z,43.70
2019-05-13T20:18:22.928Z,44.00
2019-05-13T20:20:52.313Z,44.10
2019-05-13T20:23:22.958Z,44.20
2019-05-13T20:25:52.467Z,44.70
2019-05-13T20:28:22.808Z,44.60
2019-05-13T20:30:52.070Z,45.30
2019-05-13T20:33:22.147Z,45.50
2019-05-13T20:35:51.759Z,45.50
2019-05-13T20:38:22.175Z,46.00
2019-05-13T20:40:51.945Z,45.70
2019-05-13T20:43:22.450Z,46.20
2019-05-13T20:45:52.203Z,46.20
2019-05-13T20:48:21.462Z,45.70
2019-05-13T20:50:51.899Z,45.80
2019-05-13T20:53:21.812Z,46.30
2019-05-13T20:55:52.090Z,46.40
2019-05-13T20:58:21.498Z,46.30
2019-05-13T21:00:51.522Z,46.40
2019-05-13T21:03:22.127Z,46.40
2019-05-13T21:05:52.648Z,46.70
2019-05-13T21:08:21.946Z,46.40
2019-05-13T21:10:51.747Z,46.70
2019-05-13T21:13:21.266Z,46.90
2019-05-13T21:15:51.999Z,47.00
2019-05-13T21:18:22.158Z,47.00
2019-05-13T21:20:51.565Z,46.90
2019-05-13T21:23:21.726Z,47.20
2019-05-13T21:25:51.275Z,47.30
2019-05-13T21:28:22.024Z,47.20
2019-05-13T21:30:51.586Z,47.20
2019-05-13T21:33:22.091Z,47.70
2019-05-13T21:35:51.663Z,47.80
2019-05-13T21:38:22.179Z,47.90
2019-05-13T21:40:52.341Z,47.80
2019-05-13T21:43:21.747Z,47.80
2019-05-13T21:45:52.272Z,48.40
2019-05-13T21:48:21.920Z,48.10
2019-05-13T21:50:51.726Z,48.30
2019-05-13T21:53:24.164Z,48.70
2019-05-13T21:55:52.166Z,48.50
2019-05-13T21:58:22.268Z,48.70
2019-05-13T22:00:52.525Z,48.90
2019-05-13T22:03:21.862Z,48.60
2019-05-13T22:05:51.715Z,49.70
2019-05-13T22:08:21.630Z,49.00
2019-05-13T22:10:52.425Z,49.40
2019-05-13T22:13:21.961Z,49.50
2019-05-13T22:15:52.375Z,49.50
2019-05-13T22:18:21.771Z,49.80
2019-05-13T22:20:53.702Z,50.00
2019-05-13T22:23:23.162Z,50.20
2019-05-13T22:25:52.418Z,50.50
2019-05-13T22:28:22.065Z,51.30
2019-05-13T22:30:51.847Z,51.20
2019-05-13T22:33:21.621Z,52.70
2019-05-13T22:35:52.296Z,52.50
2019-05-13T22:38:22.825Z,53.10
2019-05-13T22:40:53.158Z,52.20
2019-05-13T22:43:22.427Z,52.50
2019-05-13T22:45:51.758Z,51.70
2019-05-13T22:48:22.226Z,52.50
2019-05-13T22:50:52.191Z,53.20
2019-05-13T22:53:21.621Z,52.40
2019-05-13T22:55:52.162Z,52.50
2019-05-13T22:58:22.578Z,52.70
2019-05-13T23:00:52.099Z,53.00
2019-05-13T23:03:21.427Z,53.40
2019-05-13T23:05:52.245Z,54.00
2019-05-13T23:08:21.927Z,54.00
2019-05-13T23:10:51.645Z,54.90
2019-05-13T23:13:20.972Z,56.60
2019-05-13T23:15:51.634Z,55.40
2019-05-13T23:18:22.235Z,55.80
2019-05-13T23:20:51.743Z,56.70
2019-05-13T23:23:22.127Z,55.40
2019-05-13T23:25:51.596Z,55.60
2019-05-13T23:28:21.643Z,56.60
2019-05-13T23:30:51.429Z,58.30
2019-05-13T23:33:21.940Z,59.00
2019-05-13T23:35:51.422Z,59.70
2019-05-13T23:38:21.433Z,60.00
2019-05-13T23:40:51.634Z,59.40
2019-05-13T23:43:21.719Z,58.90
2019-05-13T23:45:51.406Z,58.70
2019-05-13T23:48:21.574Z,58.80
2019-05-13T23:50:52.134Z,58.90
2019-05-13T23:53:22.104Z,57.90
2019-05-13T23:55:52.008Z,57.80
2019-05-13T23:58:21.773Z,59.70
